Time;durP1;ratioP1;P1;durP2;ratioP2;P2;SDS_P1;SDS_P2;PMS_P1;PMS_P2;Temp;Humidity;BMP_temperature;BMP_pressure;BME280_temperature;BME280_humidity;BME280_pressure;Samples;Min_cycle;Max_cycle;Signal;HPM_P1;HPM_P2
2021/12/30 00:00:18;;;;;;;2.43;1.90;;;9.10;99.90;;;;;;5041016;28;20301;-57
2021/12/30 00:02:43;;;;;;;1.80;1.70;;;9.10;99.90;;;;;;5026194;28;20593;-59
2021/12/30 00:05:10;;;;;;;2.00;1.80;;;9.20;99.90;;;;;;5032344;28;20453;-57
2021/12/30 00:07:36;;;;;;;2.10;1.87;;;9.30;99.90;;;;;;5019699;28;20299;-56
2021/12/30 00:10:04;;;;;;;2.00;1.90;;;9.30;99.90;;;;;;5027921;28;20419;-57
2021/12/30 00:12:29;;;;;;;2.43;2.00;;;9.30;99.90;;;;;;5031937;28;20464;-56
2021/12/30 00:14:55;;;;;;;2.97;1.87;;;9.40;99.90;;;;;;5026941;28;20435;-56
2021/12/30 00:17:21;;;;;;;2.53;1.63;;;9.40;99.90;;;;;;5028443;28;20681;-57
2021/12/30 00:19:46;;;;;;;5.60;2.03;;;9.40;99.90;;;;;;5007529;28;20187;-56
2021/12/30 00:22:12;;;;;;;1.70;1.60;;;9.40;99.90;;;;;;5030038;28;20177;-57
2021/12/30 00:24:38;;;;;;;1.93;1.73;;;9.40;99.90;;;;;;5009405;28;20185;-56
2021/12/30 00:27:04;;;;;;;2.30;1.60;;;9.50;99.90;;;;;;5033799;28;20294;-56
2021/12/30 00:29:30;;;;;;;3.53;1.60;;;9.50;99.90;;;;;;5027094;28;20917;-58
2021/12/30 00:31:56;;;;;;;2.10;1.90;;;9.50;99.90;;;;;;5027903;28;20179;-56
2021/12/30 00:34:21;;;;;;;2.67;1.53;;;9.50;99.90;;;;;;5026594;28;20556;-56
2021/12/30 00:36:47;;;;;;;1.80;1.50;;;9.60;99.90;;;;;;5027319;28;20196;-58
2021/12/30 00:39:12;;;;;;;2.13;1.60;;;9.60;99.90;;;;;;5016841;28;20167;-58
2021/12/30 00:41:38;;;;;;;1.30;1.20;;;9.70;99.90;;;;;;5031697;28;20172;-57
2021/12/30 00:44:04;;;;;;;2.73;1.20;;;9.70;99.90;;;;;;5028311;28;20180;-57
2021/12/30 00:46:30;;;;;;;1.10;1.03;;;9.70;99.90;;;;;;5031049;28;20694;-57
2021/12/30 00:48:56;;;;;;;1.43;1.10;;;9.80;99.90;;;;;;5028568;28;20207;-57
2021/12/30 00:51:21;;;;;;;1.30;1.13;;;9.70;99.90;;;;;;5034262;28;20176;-58
2021/12/30 00:53:47;;;;;;;2.63;1.50;;;9.80;99.90;;;;;;5031614;28;20659;-58
2021/12/30 00:56:13;;;;;;;1.57;1.47;;;9.80;99.90;;;;;;5023092;28;20411;-57
2021/12/30 00:58:38;;;;;;;1.83;1.50;;;9.80;99.90;;;;;;5052211;23;20268;-60
2021/12/30 01:01:05;;;;;;;1.40;1.30;;;9.80;99.90;;;;;;5055522;28;20175;-59
2021/12/30 01:03:32;;;;;;;1.30;1.20;;;9.80;99.90;;;;;;5039040;28;20175;-60
2021/12/30 01:05:58;;;;;;;2.73;1.30;;;9.80;99.90;;;;;;5045279;28;20425;-59
2021/12/30 01:08:24;;;;;;;1.47;1.23;;;9.80;99.90;;;;;;5052082;28;20475;-59
2021/12/30 01:10:50;;;;;;;1.20;1.10;;;9.80;99.90;;;;;;5039378;28;20453;-59
2021/12/30 01:13:23;;;;;;;1.50;1.30;;;9.80;99.90;;;;;;5032468;28;20637;-60
2021/12/30 01:18:33;;;;;;;1.47;1.20;;;9.80;99.90;;;;;;5032088;28;20503;-60
2021/12/30 01:20:59;;;;;;;1.07;1.07;;;9.80;99.90;;;;;;5043653;28;20417;-60
2021/12/30 01:23:26;;;;;;;1.00;1.00;;;9.80;99.90;;;;;;5035847;28;20970;-60
2021/12/30 01:25:52;;;;;;;2.07;1.77;;;9.80;99.90;;;;;;5022609;28;20242;-59
2021/12/30 01:28:17;;;;;;;1.67;1.57;;;9.70;99.90;;;;;;5036039;28;20450;-59
2021/12/30 01:30:44;;;;;;;1.20;1.10;;;9.70;99.90;;;;;;5029530;28;20259;-60
2021/12/30 01:33:09;;;;;;;1.37;1.27;;;9.70;99.90;;;;;;5027583;28;20205;-60
2021/12/30 01:35:35;;;;;;;1.10;1.10;;;9.60;99.90;;;;;;5022779;28;20415;-60
2021/12/30 01:38:01;;;;;;;2.60;1.33;;;9.60;99.90;;;;;;5024754;28;20214;-59
2021/12/30 01:40:30;;;;;;;2.30;1.40;;;9.70;99.90;;;;;;5004787;28;20176;-60
2021/12/30 01:42:56;;;;;;;1.20;1.03;;;9.70;99.90;;;;;;5038572;28;20425;-60
2021/12/30 01:45:22;;;;;;;1.47;1.37;;;9.70;99.90;;;;;;5038777;28;20491;-59
2021/12/30 01:47:53;;;;;;;1.20;1.20;;;9.70;99.90;;;;;;5028689;28;20431;-60
2021/12/30 01:50:19;;;;;;;1.50;1.40;;;9.70;99.90;;;;;;5012379;28;20180;-60
2021/12/30 01:52:45;;;;;;;7.73;1.70;;;9.70;99.90;;;;;;5032537;28;20540;-59
2021/12/30 01:55:11;;;;;;;2.47;1.20;;;9.70;99.90;;;;;;5032410;28;20462;-59
2021/12/30 01:57:37;;;;;;;1.47;1.37;;;9.60;99.90;;;;;;5023996;28;20550;-60
2021/12/30 02:00:09;;;;;;;1.63;1.10;;;9.60;99.90;;;;;;5041167;28;20426;-60
2021/12/30 02:02:35;;;;;;;1.50;1.40;;;9.60;99.90;;;;;;5030912;28;20472;-59
2021/12/30 02:05:01;;;;;;;1.00;1.00;;;9.70;99.90;;;;;;5026806;28;20522;-60
2021/12/30 02:07:26;;;;;;;1.07;1.07;;;9.70;99.90;;;;;;5037638;28;20199;-59
2021/12/30 02:09:59;;;;;;;1.43;1.20;;;9.70;99.90;;;;;;5030839;28;20206;-60
2021/12/30 02:12:25;;;;;;;2.20;1.03;;;9.70;99.90;;;;;;5039270;28;20644;-60
2021/12/30 02:14:51;;;;;;;1.27;1.17;;;9.70;99.90;;;;;;5041818;28;20410;-59
2021/12/30 02:17:17;;;;;;;1.53;1.43;;;9.70;99.90;;;;;;5011038;28;20450;-60
2021/12/30 02:19:42;;;;;;;2.77;1.70;;;9.70;99.90;;;;;;5016285;28;20172;-60
2021/12/30 02:22:08;;;;;;;3.63;1.47;;;9.70;99.90;;;;;;5031337;28;20267;-60
2021/12/30 02:24:35;;;;;;;1.30;1.20;;;9.70;99.90;;;;;;5030067;28;20179;-60
2021/12/30 02:27:01;;;;;;;4.97;2.07;;;9.70;99.90;;;;;;5022605;28;20169;-60
2021/12/30 02:29:26;;;;;;;2.13;1.77;;;9.60;99.90;;;;;;5031050;28;21011;-59
2021/12/30 02:31:52;;;;;;;4.40;2.90;;;9.60;99.90;;;;;;5030661;28;20816;-60
2021/12/30 02:34:19;;;;;;;2.60;2.40;;;9.60;99.90;;;;;;5029008;28;20210;-60
2021/12/30 02:36:47;;;;;;;1.50;1.33;;;9.60;99.90;;;;;;5030412;28;20175;-60
2021/12/30 02:39:14;;;;;;;3.50;1.43;;;9.50;99.90;;;;;;5029935;28;20446;-60
2021/12/30 02:41:40;;;;;;;2.77;1.50;;;9.50;99.90;;;;;;5012908;28;20515;-59
2021/12/30 02:44:09;;;;;;;2.83;1.40;;;9.50;99.90;;;;;;5025658;28;20422;-62
2021/12/30 02:46:35;;;;;;;2.00;1.37;;;9.50;99.90;;;;;;5031000;28;20414;-60
2021/12/30 02:49:02;;;;;;;2.00;1.30;;;9.50;99.90;;;;;;5033616;28;20450;-60
2021/12/30 02:51:28;;;;;;;1.30;1.20;;;9.50;99.90;;;;;;5013932;28;20727;-60
2021/12/30 02:53:55;;;;;;;1.53;1.03;;;9.50;99.90;;;;;;5028518;28;21035;-60
2021/12/30 02:56:22;;;;;;;6.37;1.47;;;9.50;99.90;;;;;;5015198;28;20611;-59
2021/12/30 02:58:48;;;;;;;1.87;1.40;;;9.50;99.90;;;;;;5024510;28;20454;-60
2021/12/30 03:01:21;;;;;;;0.93;0.93;;;9.50;99.90;;;;;;5009275;28;20419;-60
2021/12/30 03:03:47;;;;;;;2.20;1.30;;;9.50;99.90;;;;;;5012113;28;20255;-60
2021/12/30 03:06:14;;;;;;;1.20;1.10;;;9.50;99.90;;;;;;5016919;28;20527;-60
2021/12/30 03:08:40;;;;;;;3.23;1.37;;;9.50;99.90;;;;;;5024006;28;20333;-60
2021/12/30 03:11:07;;;;;;;1.13;1.03;;;9.50;99.90;;;;;;5027520;28;20759;-60
2021/12/30 03:13:34;;;;;;;1.20;1.20;;;9.50;99.90;;;;;;5025779;28;20454;-60
2021/12/30 03:16:07;;;;;;;1.20;1.10;;;9.50;99.90;;;;;;5029053;28;20402;-60
2021/12/30 03:18:35;;;;;;;1.03;1.00;;;9.50;99.90;;;;;;5029326;28;20532;-59
2021/12/30 03:21:03;;;;;;;0.80;0.80;;;9.60;99.90;;;;;;5024143;28;20464;-60
2021/12/30 03:23:28;;;;;;;1.77;1.50;;;9.60;99.90;;;;;;5034967;28;20461;-59
2021/12/30 03:25:54;;;;;;;1.63;1.40;;;9.60;99.90;;;;;;5032407;28;20445;-60
2021/12/30 03:28:20;;;;;;;1.20;1.10;;;9.60;99.90;;;;;;5026553;28;20644;-59
2021/12/30 03:30:47;;;;;;;1.20;1.10;;;9.60;99.90;;;;;;5008870;28;20181;-58
2021/12/30 03:33:12;;;;;;;0.90;0.90;;;9.60;99.90;;;;;;5028987;28;20203;-60
2021/12/30 03:35:38;;;;;;;0.90;0.90;;;9.60;99.90;;;;;;5021297;28;20433;-60
2021/12/30 03:38:04;;;;;;;1.43;1.33;;;9.60;99.90;;;;;;5031878;28;20207;-61
2021/12/30 03:40:30;;;;;;;4.00;1.30;;;9.60;99.90;;;;;;5019414;28;20167;-59
2021/12/30 03:42:56;;;;;;;2.53;1.10;;;9.60;99.90;;;;;;5028669;28;20415;-60
2021/12/30 03:45:24;;;;;;;1.47;0.90;;;9.60;99.90;;;;;;5016051;28;20180;-59
2021/12/30 03:47:51;;;;;;;0.80;0.80;;;9.60;99.90;;;;;;5017455;28;20538;-60
2021/12/30 03:50:21;;;;;;;1.67;1.03;;;9.60;99.90;;;;;;5044391;28;20495;-60
2021/12/30 03:52:50;;;;;;;1.33;1.23;;;9.60;99.90;;;;;;5029617;28;20968;-60
2021/12/30 03:55:17;;;;;;;1.00;1.00;;;9.60;99.90;;;;;;5010720;28;20454;-59
2021/12/30 03:57:43;;;;;;;1.20;1.10;;;9.60;99.90;;;;;;5026055;28;20552;-59
2021/12/30 04:00:11;;;;;;;5.50;0.90;;;9.60;99.90;;;;;;5045313;28;20418;-60
2021/12/30 04:02:36;;;;;;;0.90;0.90;;;9.60;99.90;;;;;;5033887;28;20180;-58
2021/12/30 04:05:03;;;;;;;2.47;1.10;;;9.60;99.90;;;;;;5015411;28;20433;-60
2021/12/30 04:07:28;;;;;;;1.10;1.00;;;9.60;99.90;;;;;;5023460;28;20204;-60
2021/12/30 04:09:54;;;;;;;1.10;1.00;;;9.60;99.90;;;;;;5028943;28;20419;-60
2021/12/30 04:12:20;;;;;;;0.87;0.87;;;9.60;99.90;;;;;;5018219;28;20226;-59
2021/12/30 04:14:46;;;;;;;1.10;1.00;;;9.60;99.90;;;;;;5033811;28;20183;-61
2021/12/30 04:17:11;;;;;;;0.77;0.77;;;9.70;99.90;;;;;;5028541;28;20278;-59
2021/12/30 04:19:37;;;;;;;1.20;1.10;;;9.70;99.90;;;;;;5030156;28;20246;-59
2021/12/30 04:22:03;;;;;;;12.13;1.30;;;9.80;99.90;;;;;;5026000;28;20259;-59
2021/12/30 04:24:28;;;;;;;0.90;0.90;;;9.80;99.90;;;;;;5035632;28;20176;-59
2021/12/30 04:26:54;;;;;;;2.53;1.20;;;9.80;99.90;;;;;;5029628;28;20243;-60
2021/12/30 04:29:20;;;;;;;0.83;0.83;;;9.80;99.90;;;;;;5024946;28;20176;-60
2021/12/30 04:31:47;;;;;;;2.30;0.80;;;9.80;99.90;;;;;;5016146;28;20262;-61
2021/12/30 04:34:13;;;;;;;1.00;1.00;;;9.90;99.90;;;;;;5029872;28;20464;-60
2021/12/30 04:36:39;;;;;;;4.57;4.07;;;9.90;99.90;;;;;;5041095;28;20465;-60
2021/12/30 04:39:05;;;;;;;1.43;1.33;;;9.90;99.90;;;;;;5014017;28;20500;-60
2021/12/30 04:41:31;;;;;;;1.83;1.57;;;9.80;99.90;;;;;;5041016;28;20456;-60
2021/12/30 04:43:57;;;;;;;1.50;1.40;;;9.80;99.90;;;;;;5039932;28;20832;-60
2021/12/30 04:46:22;;;;;;;1.33;1.23;;;9.80;99.90;;;;;;5025305;28;20251;-61
2021/12/30 04:48:49;;;;;;;3.10;1.07;;;9.80;99.90;;;;;;5029504;28;20230;-60
2021/12/30 04:51:16;;;;;;;1.00;1.00;;;9.70;99.90;;;;;;5050339;28;20177;-60
2021/12/30 04:53:42;;;;;;;1.13;1.07;;;9.70;99.90;;;;;;5034227;28;20473;-61
2021/12/30 04:56:08;;;;;;;2.33;1.00;;;9.60;99.90;;;;;;5029199;28;20928;-60
2021/12/30 04:58:34;;;;;;;1.33;1.27;;;9.60;99.90;;;;;;5033459;28;20446;-59
2021/12/30 05:00:59;;;;;;;1.40;1.30;;;9.60;99.90;;;;;;5024437;28;20180;-60
2021/12/30 05:03:25;;;;;;;2.80;2.60;;;9.60;99.90;;;;;;5029872;28;20433;-59
2021/12/30 05:05:53;;;;;;;1.30;1.20;;;9.50;99.90;;;;;;5026081;28;20669;-57
2021/12/30 05:08:22;;;;;;;3.17;1.60;;;9.50;99.90;;;;;;5028769;28;20487;-60
2021/12/30 05:10:49;;;;;;;2.27;2.07;;;9.50;99.90;;;;;;5029044;28;20939;-60
2021/12/30 05:13:16;;;;;;;4.90;2.13;;;9.50;99.90;;;;;;5028799;28;20609;-60
2021/12/30 05:15:42;;;;;;;1.40;1.30;;;9.50;99.90;;;;;;5011946;28;20418;-60
2021/12/30 05:18:10;;;;;;;1.20;1.10;;;9.50;99.90;;;;;;5028389;28;20461;-59
2021/12/30 05:20:37;;;;;;;1.20;1.00;;;9.60;99.90;;;;;;5028284;28;20430;-60
2021/12/30 05:23:03;;;;;;;1.00;1.00;;;9.60;99.90;;;;;;5028101;28;20434;-60
2021/12/30 05:25:29;;;;;;;1.10;1.00;;;9.70;99.90;;;;;;5027625;28;20856;-60
2021/12/30 05:27:55;;;;;;;1.00;0.90;;;9.70;99.90;;;;;;5011486;28;20426;-60
2021/12/30 05:30:22;;;;;;;1.20;1.10;;;9.80;99.90;;;;;;5026560;28;20438;-60
2021/12/30 05:32:50;;;;;;;1.00;1.00;;;9.80;99.90;;;;;;5027166;28;20870;-59
2021/12/30 05:35:16;;;;;;;2.43;0.90;;;9.80;99.90;;;;;;5026098;28;20445;-60
2021/12/30 05:37:42;;;;;;;1.10;1.00;;;9.90;99.90;;;;;;5028725;28;20878;-60
2021/12/30 05:40:10;;;;;;;0.90;0.90;;;9.90;99.90;;;;;;5029061;28;20186;-60
2021/12/30 05:42:37;;;;;;;1.17;1.10;;;9.90;99.90;;;;;;5028156;28;20933;-60
2021/12/30 05:45:04;;;;;;;2.30;1.97;;;9.90;99.90;;;;;;5028299;28;20426;-60
2021/12/30 05:47:30;;;;;;;1.10;1.00;;;9.90;99.90;;;;;;5027991;28;20481;-58
2021/12/30 05:49:56;;;;;;;1.30;1.20;;;9.90;99.90;;;;;;5028145;28;20853;-60
2021/12/30 05:52:22;;;;;;;0.90;0.90;;;10.00;99.90;;;;;;5029075;28;20238;-59
2021/12/30 05:54:48;;;;;;;0.90;0.90;;;10.00;99.90;;;;;;5026499;28;20948;-60
2021/12/30 05:57:13;;;;;;;0.90;0.90;;;10.00;99.90;;;;;;5025793;28;20561;-60
2021/12/30 05:59:39;;;;;;;1.03;1.03;;;10.10;99.90;;;;;;5024379;28;20454;-60
2021/12/30 06:02:05;;;;;;;1.40;1.20;;;10.10;99.90;;;;;;5024780;28;20180;-60
2021/12/30 06:04:31;;;;;;;0.90;0.90;;;10.10;99.90;;;;;;5024642;28;20188;-59
2021/12/30 06:06:56;;;;;;;1.90;1.50;;;10.10;99.90;;;;;;5025284;28;20422;-60
2021/12/30 06:09:25;;;;;;;1.13;1.10;;;10.10;99.90;;;;;;5020425;28;20836;-59
2021/12/30 06:11:51;;;;;;;1.17;1.00;;;10.10;99.90;;;;;;5020471;28;20175;-59
2021/12/30 06:14:16;;;;;;;1.20;1.10;;;10.10;99.90;;;;;;5023511;28;20462;-60
2021/12/30 06:16:42;;;;;;;1.10;1.10;;;10.10;99.90;;;;;;5019462;28;20433;-59
2021/12/30 06:19:08;;;;;;;1.30;1.20;;;10.20;99.90;;;;;;5018681;28;20195;-60
2021/12/30 06:21:33;;;;;;;3.03;1.30;;;10.20;99.90;;;;;;5021067;28;20171;-58
2021/12/30 06:23:59;;;;;;;1.10;1.10;;;10.20;99.90;;;;;;5020883;28;20269;-60
2021/12/30 06:26:25;;;;;;;0.90;0.90;;;10.20;99.90;;;;;;5005294;28;20242;-60
2021/12/30 06:28:51;;;;;;;1.00;1.00;;;10.20;99.90;;;;;;5022519;28;20246;-58
2021/12/30 06:31:16;;;;;;;2.53;2.07;;;10.20;99.90;;;;;;5015724;28;20721;-60
2021/12/30 06:33:42;;;;;;;1.70;1.60;;;10.20;99.90;;;;;;5025136;28;20204;-59
2021/12/30 06:36:09;;;;;;;1.20;1.10;;;10.20;99.90;;;;;;5024234;28;20207;-60
2021/12/30 06:38:35;;;;;;;2.03;1.33;;;10.20;99.90;;;;;;5022831;28;20254;-61
2021/12/30 06:41:01;;;;;;;1.93;0.93;;;10.20;99.90;;;;;;5020801;28;20434;-60
2021/12/30 06:43:27;;;;;;;2.13;1.67;;;10.20;99.90;;;;;;5024540;28;20426;-60
2021/12/30 06:45:52;;;;;;;2.97;1.40;;;10.20;99.90;;;;;;5009085;28;20426;-61
2021/12/30 06:48:18;;;;;;;1.23;1.03;;;10.20;99.90;;;;;;5019308;28;20550;-60
2021/12/30 06:50:51;;;;;;;4.20;1.10;;;10.20;99.90;;;;;;5021514;28;20184;-60
2021/12/30 06:53:22;;;;;;;1.00;1.00;;;10.20;99.90;;;;;;5024202;28;20194;-61
2021/12/30 06:55:50;;;;;;;1.13;1.13;;;10.20;99.90;;;;;;5019008;28;20455;-60
2021/12/30 06:58:16;;;;;;;2.03;0.93;;;10.20;99.90;;;;;;5027702;28;20466;-61
2021/12/30 07:00:42;;;;;;;0.87;0.87;;;10.20;99.90;;;;;;5030387;28;20455;-58
2021/12/30 07:03:08;;;;;;;1.03;0.93;;;10.20;99.90;;;;;;5021725;28;20446;-59
2021/12/30 07:05:34;;;;;;;1.83;0.90;;;10.20;99.90;;;;;;5028426;28;20457;-60
2021/12/30 07:08:00;;;;;;;1.00;1.00;;;10.30;99.90;;;;;;5025605;28;20281;-60
2021/12/30 07:10:27;;;;;;;1.13;0.93;;;10.30;99.90;;;;;;5025124;28;20458;-60
2021/12/30 07:12:52;;;;;;;2.10;1.13;;;10.30;99.90;;;;;;5026237;28;20454;-60
2021/12/30 07:15:19;;;;;;;0.90;0.90;;;10.30;99.90;;;;;;5026527;28;20500;-61
2021/12/30 07:17:45;;;;;;;1.23;1.10;;;10.30;99.90;;;;;;5007908;28;20732;-59
2021/12/30 07:20:11;;;;;;;1.13;1.13;;;10.30;99.90;;;;;;5025449;28;20441;-60
2021/12/30 07:22:37;;;;;;;0.97;0.97;;;10.30;99.90;;;;;;5005167;28;20186;-61
2021/12/30 07:25:03;;;;;;;1.30;1.10;;;10.30;99.90;;;;;;5025681;28;20496;-61
2021/12/30 07:27:29;;;;;;;1.83;1.30;;;10.30;99.90;;;;;;5024189;28;20487;-61
2021/12/30 07:29:56;;;;;;;1.20;1.10;;;10.30;99.90;;;;;;5023650;28;20426;-62
2021/12/30 07:32:22;;;;;;;1.20;1.20;;;10.30;99.90;;;;;;5015832;28;20564;-60
2021/12/30 07:34:48;;;;;;;1.57;1.10;;;10.30;99.90;;;;;;5024282;28;20930;-58
2021/12/30 07:37:14;;;;;;;1.00;1.00;;;10.30;99.90;;;;;;5018578;28;20485;-58
2021/12/30 07:39:45;;;;;;;2.30;0.90;;;10.30;99.90;;;;;;5023545;28;20263;-59
2021/12/30 07:42:12;;;;;;;0.90;0.90;;;10.30;99.90;;;;;;5024056;28;20489;-60
2021/12/30 07:44:38;;;;;;;1.00;1.00;;;10.30;99.90;;;;;;5021154;28;20424;-60
2021/12/30 07:47:05;;;;;;;0.80;0.80;;;10.30;99.90;;;;;;5019993;28;20453;-61
2021/12/30 07:49:32;;;;;;;1.13;1.10;;;10.30;99.90;;;;;;5029781;28;20419;-58
2021/12/30 07:52:00;;;;;;;0.80;0.80;;;10.40;99.90;;;;;;5030463;28;20563;-61
2021/12/30 07:54:26;;;;;;;1.63;1.30;;;10.40;99.90;;;;;;5025913;28;20509;-59
2021/12/30 07:56:52;;;;;;;1.63;0.90;;;10.40;99.90;;;;;;5012220;28;20823;-60
2021/12/30 07:59:17;;;;;;;1.00;1.00;;;10.40;99.90;;;;;;5034093;28;20180;-60
2021/12/30 08:01:43;;;;;;;1.60;1.50;;;10.40;99.90;;;;;;5027232;28;20172;-60
2021/12/30 08:04:09;;;;;;;2.00;1.30;;;10.40;99.90;;;;;;5023045;28;20195;-60
2021/12/30 08:06:34;;;;;;;1.30;1.20;;;10.40;99.90;;;;;;5029191;28;20172;-61
2021/12/30 08:09:00;;;;;;;0.97;0.97;;;10.40;99.90;;;;;;5029400;28;20192;-60
2021/12/30 08:11:26;;;;;;;1.53;0.90;;;10.40;99.90;;;;;;5030688;28;20194;-60
2021/12/30 08:13:51;;;;;;;1.20;1.00;;;10.50;99.90;;;;;;5017716;28;20316;-60
2021/12/30 08:16:17;;;;;;;1.63;1.20;;;10.50;99.90;;;;;;5024194;28;20172;-61
2021/12/30 08:18:43;;;;;;;1.00;1.00;;;10.50;99.90;;;;;;5005032;28;20188;-60
2021/12/30 08:21:09;;;;;;;3.90;1.00;;;10.50;99.90;;;;;;5022865;28;20168;-60
2021/12/30 08:23:35;;;;;;;1.20;1.10;;;10.50;99.90;;;;;;5020397;28;20179;-61
2021/12/30 08:26:05;;;;;;;1.00;0.97;;;10.50;99.90;;;;;;5012673;28;20449;-61
2021/12/30 08:28:31;;;;;;;1.03;1.00;;;10.50;99.90;;;;;;5010757;28;21120;-60
2021/12/30 08:30:57;;;;;;;0.90;0.90;;;10.50;99.90;;;;;;5036410;28;20929;-61
2021/12/30 08:33:23;;;;;;;0.90;0.90;;;10.50;99.90;;;;;;5011372;28;20504;-60
2021/12/30 08:35:49;;;;;;;1.37;1.00;;;10.50;99.90;;;;;;5008249;28;20230;-61
2021/12/30 08:38:17;;;;;;;1.30;1.20;;;10.60;99.90;;;;;;5017821;28;20439;-60
2021/12/30 08:40:45;;;;;;;1.50;1.40;;;10.60;99.90;;;;;;5026139;28;20431;-60
2021/12/30 08:43:13;;;;;;;5.63;1.77;;;10.70;99.90;;;;;;5027587;28;20422;-61
2021/12/30 08:45:39;;;;;;;2.40;1.40;;;10.70;99.90;;;;;;5029365;28;20913;-61
2021/12/30 08:48:05;;;;;;;1.30;1.20;;;10.80;99.90;;;;;;5035619;28;20446;-59
2021/12/30 08:50:31;;;;;;;1.27;1.20;;;10.80;99.90;;;;;;5010453;28;20434;-60
2021/12/30 08:52:57;;;;;;;4.43;1.57;;;10.80;99.90;;;;;;5025179;28;20463;-61
2021/12/30 08:55:23;;;;;;;1.37;1.27;;;10.80;99.90;;;;;;5029271;28;20946;-60
2021/12/30 08:57:49;;;;;;;4.53;1.60;;;10.90;99.90;;;;;;5024737;28;20297;-61
2021/12/30 09:00:24;;;;;;;1.77;1.20;;;10.90;99.90;;;;;;5029515;28;20226;-61
2021/12/30 09:02:54;;;;;;;1.20;1.10;;;10.90;99.90;;;;;;5028203;28;20426;-60
2021/12/30 09:05:20;;;;;;;1.13;1.10;;;11.00;99.90;;;;;;5011115;28;20433;-60
2021/12/30 09:07:46;;;;;;;1.03;0.93;;;11.00;99.90;;;;;;5029070;28;20552;-61
2021/12/30 09:10:14;;;;;;;1.50;1.40;;;11.00;99.90;;;;;;5021599;28;20264;-61
2021/12/30 09:12:43;;;;;;;1.30;1.20;;;11.10;99.90;;;;;;5009394;28;20513;-60
2021/12/30 09:15:11;;;;;;;1.73;1.50;;;11.10;99.90;;;;;;5009254;28;20431;-61
2021/12/30 09:17:37;;;;;;;1.73;1.47;;;11.20;99.90;;;;;;5017577;28;20450;-61
2021/12/30 09:20:03;;;;;;;2.80;1.20;;;11.30;99.90;;;;;;5036365;28;20413;-60
2021/12/30 09:22:29;;;;;;;1.20;1.10;;;11.30;99.90;;;;;;5031824;28;20426;-61
2021/12/30 09:24:55;;;;;;;2.70;2.10;;;11.40;99.90;;;;;;5039661;28;20453;-61
2021/12/30 09:27:20;;;;;;;1.50;1.30;;;11.40;99.90;;;;;;5027533;28;20446;-61
2021/12/30 09:29:46;;;;;;;1.97;1.37;;;11.50;99.90;;;;;;5032384;28;20194;-61
2021/12/30 09:32:12;;;;;;;1.43;1.33;;;11.60;99.90;;;;;;5031958;28;20642;-61
2021/12/30 09:34:38;;;;;;;1.60;1.50;;;11.60;99.90;;;;;;5016272;28;20239;-61
2021/12/30 09:37:09;;;;;;;1.40;1.30;;;11.70;99.90;;;;;;5021529;28;20541;-61
2021/12/30 09:39:36;;;;;;;1.30;1.20;;;11.80;99.90;;;;;;5043904;28;20485;-60
2021/12/30 09:42:02;;;;;;;1.30;1.20;;;11.90;99.90;;;;;;5052393;28;20401;-61
2021/12/30 09:44:28;;;;;;;1.70;1.47;;;12.00;99.90;;;;;;5015689;28;20545;-60
2021/12/30 09:46:54;;;;;;;2.37;1.77;;;12.00;99.90;;;;;;5018989;28;20657;-60
2021/12/30 09:49:23;;;;;;;1.47;1.37;;;12.00;99.90;;;;;;5032262;28;20183;-60
2021/12/30 09:51:48;;;;;;;2.13;1.93;;;12.10;99.90;;;;;;4993425;28;20184;-60
2021/12/30 09:54:14;;;;;;;2.10;1.50;;;12.10;99.90;;;;;;5012130;28;20982;-60
2021/12/30 09:56:40;;;;;;;4.03;2.70;;;12.20;99.90;;;;;;5016591;28;20183;-61
2021/12/30 09:59:07;;;;;;;1.70;1.60;;;12.20;99.90;;;;;;5039636;28;20203;-60
2021/12/30 10:01:35;;;;;;;1.23;1.13;;;12.30;99.90;;;;;;5031446;28;20950;-61
2021/12/30 10:04:04;;;;;;;1.10;1.00;;;12.30;99.90;;;;;;5033902;28;20807;-60
2021/12/30 10:06:30;;;;;;;1.40;1.30;;;12.50;99.90;;;;;;5031181;28;20430;-60
2021/12/30 10:09:09;;;;;;;1.00;0.90;;;12.60;99.90;;;;;;5028042;28;20477;-60
2021/12/30 10:11:54;;;;;;;1.10;1.00;;;12.70;99.90;;;;;;5031958;28;20453;-61
2021/12/30 10:14:34;;;;;;;0.83;0.83;;;12.70;99.90;;;;;;5032034;28;20462;-60
2021/12/30 10:17:17;;;;;;;1.50;1.33;;;12.80;99.90;;;;;;5013818;28;20435;-60
2021/12/30 10:19:44;;;;;;;1.00;0.80;;;12.70;99.90;;;;;;5012194;28;20906;-59
2021/12/30 10:22:15;;;;;;;1.17;1.00;;;12.70;99.90;;;;;;5038501;28;20511;-59
2021/12/30 10:24:42;;;;;;;0.83;0.83;;;12.70;99.90;;;;;;5031535;28;20488;-60
2021/12/30 10:27:08;;;;;;;1.10;1.00;;;12.80;99.90;;;;;;5027198;28;20445;-60
2021/12/30 10:29:47;;;;;;;1.87;1.53;;;12.80;99.90;;;;;;5031387;28;20670;-60
2021/12/30 10:32:23;;;;;;;1.20;1.10;;;12.90;99.90;;;;;;5030484;28;20291;-60
2021/12/30 10:35:10;;;;;;;2.83;1.30;;;13.00;99.90;;;;;;5035490;28;20953;-61
2021/12/30 10:37:38;;;;;;;1.17;1.10;;;13.10;99.90;;;;;;5025630;28;20442;-60
2021/12/30 10:40:05;;;;;;;1.00;1.00;;;13.10;99.90;;;;;;5030257;28;20407;-60
2021/12/30 10:42:33;;;;;;;3.10;1.20;;;13.10;99.90;;;;;;5036940;28;20435;-60
2021/12/30 10:45:05;;;;;;;0.80;0.80;;;13.20;99.90;;;;;;5029007;28;20415;-59
2021/12/30 10:47:49;;;;;;;1.30;1.20;;;13.20;99.90;;;;;;5033597;28;20810;-60
2021/12/30 10:50:15;;;;;;;1.40;1.30;;;13.30;99.90;;;;;;5038329;28;20412;-59
2021/12/30 10:52:51;;;;;;;2.53;1.47;;;13.40;99.90;;;;;;5028441;28;20832;-60
2021/12/30 10:55:18;;;;;;;2.90;1.90;;;13.40;99.90;;;;;;5030026;28;20160;-60
2021/12/30 10:57:43;;;;;;;1.57;1.47;;;13.40;99.90;;;;;;5030466;28;20552;-59
2021/12/30 11:00:10;;;;;;;1.70;1.60;;;13.50;99.90;;;;;;5029148;28;20585;-60
2021/12/30 11:02:36;;;;;;;2.13;1.43;;;13.50;99.90;;;;;;5033864;28;20430;-60
2021/12/30 11:05:09;;;;;;;1.40;1.30;;;13.60;99.90;;;;;;5029792;28;20952;-60
2021/12/30 11:07:48;;;;;;;1.70;1.60;;;13.70;99.90;;;;;;5029820;28;20434;-60
2021/12/30 11:10:28;;;;;;;1.50;1.40;;;13.70;99.90;;;;;;5012203;28;20415;-60
2021/12/30 11:12:54;;;;;;;2.30;1.40;;;13.70;99.90;;;;;;5011451;28;20550;-61
2021/12/30 11:15:23;;;;;;;1.50;1.40;;;13.60;99.90;;;;;;5001504;28;20490;-60
2021/12/30 11:17:49;;;;;;;2.30;1.13;;;13.50;99.90;;;;;;5027781;28;20587;-61
2021/12/30 11:20:17;;;;;;;5.87;1.17;;;13.50;99.90;;;;;;5010332;28;20400;-61
2021/12/30 11:22:43;;;;;;;1.30;1.20;;;13.50;99.90;;;;;;5021302;28;20422;-61
2021/12/30 11:25:12;;;;;;;1.10;1.10;;;13.60;99.90;;;;;;5034319;28;20419;-61
2021/12/30 11:27:38;;;;;;;1.00;1.00;;;13.70;99.90;;;;;;5034276;28;20187;-60
2021/12/30 11:30:08;;;;;;;1.00;0.90;;;13.70;99.90;;;;;;5029056;28;20845;-60
2021/12/30 11:32:36;;;;;;;0.93;0.93;;;13.70;99.90;;;;;;5028598;28;20418;-61
2021/12/30 11:35:05;;;;;;;1.10;1.00;;;13.80;99.90;;;;;;5028162;28;20457;-60
2021/12/30 11:37:32;;;;;;;1.00;1.00;;;13.80;99.90;;;;;;5030186;28;20438;-60
2021/12/30 11:40:01;;;;;;;0.87;0.87;;;13.80;99.90;;;;;;5011042;28;20407;-61
2021/12/30 11:42:39;;;;;;;1.30;1.20;;;13.80;99.90;;;;;;5028605;28;20532;-61
2021/12/30 11:45:27;;;;;;;1.17;1.07;;;13.80;99.90;;;;;;5028669;28;20430;-61
2021/12/30 11:47:54;;;;;;;2.00;1.20;;;13.80;99.90;;;;;;5030591;28;20441;-61
2021/12/30 11:50:26;;;;;;;1.63;1.23;;;13.70;99.90;;;;;;5029034;28;20418;-61
2021/12/30 11:53:27;;;;;;;2.13;1.30;;;13.60;99.90;;;;;;5029623;28;20450;-61
2021/12/30 11:55:58;;;;;;;2.00;1.20;;;13.50;99.90;;;;;;5010272;28;20536;-60
2021/12/30 11:58:36;;;;;;;1.50;1.03;;;13.40;99.90;;;;;;5029149;28;20610;-61
2021/12/30 12:01:10;;;;;;;3.60;1.10;;;13.30;99.90;;;;;;5015667;28;20422;-61
2021/12/30 12:03:53;;;;;;;2.30;1.00;;;13.30;99.90;;;;;;5019921;28;20456;-61
2021/12/30 12:06:27;;;;;;;2.67;1.40;;;13.30;99.90;;;;;;5023655;28;20496;-60
2021/12/30 12:08:56;;;;;;;2.80;1.33;;;13.20;99.90;;;;;;5028714;28;20500;-61
2021/12/30 12:11:25;;;;;;;0.90;0.90;;;13.10;99.90;;;;;;5033179;28;20484;-61
2021/12/30 12:13:54;;;;;;;1.10;1.00;;;13.10;99.90;;;;;;5032479;28;20840;-60
2021/12/30 12:16:56;;;;;;;0.90;0.90;;;13.00;99.90;;;;;;5028698;28;20422;-60
2021/12/30 12:19:31;;;;;;;2.00;0.90;;;13.00;99.90;;;;;;5020236;28;20999;-60
2021/12/30 12:21:57;;;;;;;1.60;1.50;;;13.00;99.90;;;;;;5028798;28;20426;-61
2021/12/30 12:24:22;;;;;;;0.80;0.80;;;13.10;99.90;;;;;;5025833;28;20805;-60
2021/12/30 12:26:54;;;;;;;0.90;0.90;;;13.10;99.90;;;;;;5027444;28;20176;-61
2021/12/30 12:29:35;;;;;;;0.93;0.90;;;13.20;99.90;;;;;;5035783;28;20278;-61
2021/12/30 12:32:10;;;;;;;1.93;1.20;;;13.10;99.90;;;;;;5034859;28;20430;-60
2021/12/30 12:34:50;;;;;;;1.00;1.00;;;13.10;99.90;;;;;;5017224;28;20466;-59
2021/12/30 12:37:39;;;;;;;1.00;1.00;;;13.10;99.90;;;;;;5004712;28;20823;-60
2021/12/30 12:40:07;;;;;;;0.90;0.90;;;13.10;99.90;;;;;;5013813;28;20941;-61
2021/12/30 12:42:51;;;;;;;1.53;1.10;;;13.20;99.90;;;;;;5023746;28;20540;-61
2021/12/30 12:45:27;;;;;;;1.57;1.30;;;13.20;99.90;;;;;;5029007;28;20417;-61
2021/12/30 12:48:17;;;;;;;1.27;1.17;;;13.20;99.90;;;;;;5034769;28;20436;-61
2021/12/30 12:50:43;;;;;;;1.20;1.10;;;13.20;99.90;;;;;;5027911;28;20446;-61
2021/12/30 12:53:24;;;;;;;2.03;1.00;;;13.20;99.90;;;;;;5027627;28;20993;-60
2021/12/30 12:55:51;;;;;;;1.17;1.00;;;13.30;99.90;;;;;;5028549;28;20172;-60